Time;durP1;ratioP1;P1;durP2;ratioP2;P2;SDS_P1;SDS_P2;PMS_P1;PMS_P2;Temp;Humidity;BMP_temperature;BMP_pressure;BME280_temperature;BME280_humidity;BME280_pressure;Samples;Min_cycle;Max_cycle;Signal;HPM_P1;HPM_P2
2021/01/26 00:02:22;;;;;;;21.77;12.85;;;0.70;99.90;;;;;;4996357;28;20033;-73
2021/01/26 00:04:48;;;;;;;29.00;15.38;;;0.80;99.90;;;;;;4995883;28;20038;-74
2021/01/26 00:07:15;;;;;;;32.45;17.33;;;0.80;99.90;;;;;;4996111;28;20057;-74
2021/01/26 00:09:41;;;;;;;40.75;19.10;;;0.80;99.90;;;;;;4995933;28;20046;-73
2021/01/26 00:12:08;;;;;;;23.25;13.27;;;0.80;99.90;;;;;;4996011;28;20041;-74
2021/01/26 00:14:34;;;;;;;19.55;12.63;;;0.90;99.90;;;;;;4995647;28;20038;-73
2021/01/26 00:17:00;;;;;;;21.30;12.15;;;0.80;99.90;;;;;;4996466;28;20399;-73
2021/01/26 00:19:27;;;;;;;19.42;11.50;;;0.80;99.90;;;;;;4995530;28;20030;-73
2021/01/26 00:21:53;;;;;;;21.95;10.65;;;0.80;99.90;;;;;;4995536;28;20046;-73
2021/01/26 00:24:19;;;;;;;20.63;10.98;;;0.80;99.90;;;;;;4996508;28;20038;-73
2021/01/26 00:26:45;;;;;;;28.00;15.43;;;0.80;99.90;;;;;;4994895;28;20046;-73
2021/01/26 00:29:11;;;;;;;23.98;14.25;;;0.80;99.90;;;;;;4977570;28;20050;-73
2021/01/26 00:31:38;;;;;;;51.78;25.30;;;0.70;99.90;;;;;;4995487;28;20380;-73
2021/01/26 00:34:04;;;;;;;40.17;22.15;;;0.70;99.90;;;;;;4995654;28;20030;-74
2021/01/26 00:36:30;;;;;;;26.67;14.95;;;0.60;99.90;;;;;;4995019;28;20053;-74
2021/01/26 00:38:56;;;;;;;45.75;22.58;;;0.60;99.90;;;;;;4995828;28;20034;-74
2021/01/26 00:41:23;;;;;;;35.17;19.33;;;0.50;99.90;;;;;;4995306;28;20030;-73
2021/01/26 00:43:49;;;;;;;29.77;17.58;;;0.50;99.90;;;;;;4995005;28;20384;-73
2021/01/26 00:46:15;;;;;;;22.67;13.27;;;0.50;99.90;;;;;;4994690;28;20099;-73
2021/01/26 00:48:41;;;;;;;24.35;12.82;;;0.60;99.90;;;;;;4994438;28;20042;-73
2021/01/26 00:51:08;;;;;;;24.13;14.30;;;0.60;99.90;;;;;;4978100;28;20050;-73
2021/01/26 00:53:35;;;;;;;24.05;13.70;;;0.60;99.90;;;;;;4992617;28;20057;-74
2021/01/26 00:56:07;;;;;;;29.63;15.32;;;0.60;99.90;;;;;;4993388;28;20495;-73
2021/01/26 00:58:34;;;;;;;29.63;14.73;;;0.60;99.90;;;;;;4993347;28;20484;-73
2021/01/26 01:01:02;;;;;;;29.52;15.38;;;0.70;99.90;;;;;;4993212;28;20046;-73
2021/01/26 01:03:32;;;;;;;18.73;10.13;;;0.80;99.90;;;;;;4976933;28;20404;-73
2021/01/26 01:05:58;;;;;;;29.48;15.57;;;0.80;99.90;;;;;;4995233;28;20038;-73
2021/01/26 01:08:25;;;;;;;22.52;12.65;;;0.80;99.90;;;;;;4995155;28;20391;-73
2021/01/26 01:10:52;;;;;;;29.08;16.55;;;0.80;99.90;;;;;;4994441;28;20041;-73
2021/01/26 01:13:19;;;;;;;19.90;11.88;;;0.80;99.90;;;;;;4994838;28;20045;-73
2021/01/26 01:15:46;;;;;;;23.55;12.95;;;0.90;99.90;;;;;;4994192;28;20037;-72
2021/01/26 01:18:12;;;;;;;22.67;13.25;;;0.90;99.90;;;;;;4994758;28;20464;-73
2021/01/26 01:20:38;;;;;;;29.23;13.57;;;0.80;99.90;;;;;;4994483;28;20117;-73
2021/01/26 01:23:05;;;;;;;28.77;15.10;;;0.80;99.90;;;;;;4994490;28;20034;-73
2021/01/26 01:25:31;;;;;;;24.10;13.82;;;0.80;99.90;;;;;;4994408;28;20043;-73
2021/01/26 01:27:57;;;;;;;27.92;14.48;;;0.70;99.90;;;;;;4994374;28;20031;-73
2021/01/26 01:30:28;;;;;;;25.48;13.77;;;0.80;99.90;;;;;;4994665;28;20356;-73
2021/01/26 01:32:55;;;;;;;32.17;16.45;;;0.80;99.90;;;;;;4993802;28;20512;-73
2021/01/26 01:35:22;;;;;;;21.55;13.40;;;0.90;99.90;;;;;;4997485;28;20057;-73
2021/01/26 01:37:49;;;;;;;31.33;15.57;;;0.90;99.90;;;;;;4993872;28;20046;-73
2021/01/26 01:40:22;;;;;;;28.75;13.65;;;0.90;99.90;;;;;;4993329;28;20160;-73
2021/01/26 01:42:49;;;;;;;25.75;13.27;;;0.90;99.90;;;;;;4993337;28;20267;-73
2021/01/26 01:45:17;;;;;;;23.50;11.98;;;1.00;99.90;;;;;;4994025;28;20045;-73
2021/01/26 01:47:52;;;;;;;21.70;11.73;;;1.00;99.90;;;;;;4993763;28;20038;-72
2021/01/26 01:50:25;;;;;;;22.17;12.15;;;1.00;99.90;;;;;;4994466;28;20046;-73
2021/01/26 01:53:01;;;;;;;21.98;13.80;;;1.00;99.90;;;;;;4993550;28;20042;-73
2021/01/26 01:55:31;;;;;;;25.50;14.88;;;1.10;99.90;;;;;;4994471;28;20388;-73
2021/01/26 01:58:05;;;;;;;25.48;13.18;;;1.10;99.90;;;;;;4994331;28;20038;-73
2021/01/26 02:00:33;;;;;;;27.45;13.98;;;1.10;99.90;;;;;;4993468;28;20038;-73
2021/01/26 02:03:19;;;;;;;22.75;13.27;;;1.20;99.90;;;;;;4994461;28;20038;-73
2021/01/26 02:05:49;;;;;;;25.75;13.30;;;1.20;99.90;;;;;;4993065;28;20051;-73
2021/01/26 02:08:23;;;;;;;18.27;11.18;;;1.20;99.90;;;;;;4994059;28;20035;-73
2021/01/26 02:10:50;;;;;;;24.25;13.55;;;1.20;99.90;;;;;;4992441;28;20053;-74
2021/01/26 02:13:16;;;;;;;24.60;12.10;;;1.20;99.90;;;;;;4993955;28;20482;-73
2021/01/26 02:15:43;;;;;;;20.50;11.38;;;1.20;99.90;;;;;;4993619;28;20046;-73
2021/01/26 02:18:24;;;;;;;20.40;11.75;;;1.10;99.90;;;;;;4993402;28;20026;-73
2021/01/26 02:21:11;;;;;;;21.83;12.90;;;1.10;99.90;;;;;;4993506;28;20042;-73
2021/01/26 02:23:40;;;;;;;24.67;12.55;;;1.20;99.90;;;;;;4993103;28;20030;-73
2021/01/26 02:26:26;;;;;;;24.20;12.07;;;1.20;99.90;;;;;;4994454;28;20476;-73
2021/01/26 02:28:57;;;;;;;18.70;10.60;;;1.10;99.90;;;;;;4993238;28;20042;-74
2021/01/26 02:31:57;;;;;;;21.83;10.43;;;1.20;99.90;;;;;;5097527;27;20421;-72
2021/01/26 02:34:47;;;;;;;18.80;10.45;;;1.10;99.90;;;;;;5089949;28;20033;-72
2021/01/26 02:37:39;;;;;;;19.05;11.48;;;1.20;99.90;;;;;;5089552;28;20024;-72
2021/01/26 02:40:18;;;;;;;18.75;10.38;;;1.20;99.90;;;;;;5089737;28;20036;-72
2021/01/26 02:43:06;;;;;;;20.13;11.48;;;1.20;99.90;;;;;;5103417;28;20055;-73
2021/01/26 02:45:56;;;;;;;19.85;11.23;;;1.10;99.90;;;;;;5095871;28;20032;-73
2021/01/26 02:48:47;;;;;;;25.80;11.55;;;1.10;99.90;;;;;;5089377;28;20090;-73
2021/01/26 02:51:52;;;;;;;22.25;11.43;;;1.20;99.90;;;;;;5089140;28;20400;-73
2021/01/26 02:54:43;;;;;;;20.55;11.85;;;1.20;99.90;;;;;;5104695;28;20059;-73
2021/01/26 02:57:44;;;;;;;24.23;13.65;;;1.30;99.90;;;;;;5089790;28;20044;-73
2021/01/26 03:00:15;;;;;;;23.52;11.48;;;1.30;99.90;;;;;;5089446;28;20036;-73
2021/01/26 03:03:00;;;;;;;;;;;1.30;99.90;;;;;;5106190;28;20028;-73
2021/01/26 03:05:42;;;;;;;25.27;12.50;;;1.30;99.90;;;;;;5088998;28;19915;-73
2021/01/26 03:08:17;;;;;;;22.90;12.07;;;1.30;99.90;;;;;;5089253;28;20373;-73
2021/01/26 03:10:58;;;;;;;24.52;14.32;;;1.30;99.90;;;;;;5099313;28;20031;-73
2021/01/26 03:13:28;;;;;;;21.08;12.30;;;1.20;99.90;;;;;;5088725;28;20363;-73
2021/01/26 03:16:05;;;;;;;23.25;12.10;;;1.20;99.90;;;;;;5099987;28;20024;-73
2021/01/26 03:18:40;;;;;;;21.77;12.18;;;1.20;99.90;;;;;;5090745;28;20091;-73
2021/01/26 03:21:09;;;;;;;24.77;12.85;;;1.10;99.90;;;;;;5088565;28;20043;-73
2021/01/26 03:23:47;;;;;;;21.98;12.10;;;1.10;99.90;;;;;;5088477;28;20028;-73
2021/01/26 03:26:21;;;;;;;21.40;10.65;;;1.10;99.90;;;;;;5102869;28;20044;-73
2021/01/26 03:28:52;;;;;;;24.15;11.95;;;1.20;99.90;;;;;;5088356;28;20462;-73
2021/01/26 03:31:30;;;;;;;19.33;11.17;;;1.30;99.90;;;;;;5088498;28;20066;-73
2021/01/26 03:33:56;;;;;;;22.02;10.88;;;1.30;99.90;;;;;;5103643;28;20504;-73
2021/01/26 03:36:22;;;;;;;22.45;11.88;;;1.40;99.90;;;;;;5088749;28;20496;-73
2021/01/26 03:38:52;;;;;;;17.17;9.23;;;1.50;99.90;;;;;;5087971;28;20031;-73
2021/01/26 03:41:18;;;;;;;19.52;9.95;;;1.60;99.90;;;;;;5083604;28;20041;-73
2021/01/26 03:43:46;;;;;;;20.27;10.07;;;1.60;99.90;;;;;;5088566;28;20040;-73
2021/01/26 03:46:46;;;;;;;20.90;11.73;;;1.60;99.90;;;;;;5074407;28;20029;-73
2021/01/26 03:49:49;;;;;;;16.13;9.68;;;1.70;99.90;;;;;;5074538;28;20028;-73
2021/01/26 03:52:46;;;;;;;17.50;10.05;;;1.80;99.90;;;;;;5086017;28;20047;-73
2021/01/26 03:55:30;;;;;;;18.20;8.90;;;1.80;99.90;;;;;;5073428;28;20043;-73
2021/01/26 03:58:01;;;;;;;18.50;9.45;;;1.90;99.90;;;;;;5078888;28;20040;-74
2021/01/26 04:00:36;;;;;;;20.25;9.98;;;1.90;99.90;;;;;;5086695;28;20052;-73
2021/01/26 04:03:21;;;;;;;17.05;8.90;;;1.90;99.90;;;;;;5090873;28;20035;-73
2021/01/26 04:06:05;;;;;;;20.27;8.95;;;2.00;99.90;;;;;;5075487;28;20051;-71
2021/01/26 04:08:44;;;;;;;19.15;8.95;;;2.00;99.90;;;;;;5091347;28;20484;-73
2021/01/26 04:11:20;;;;;;;19.50;10.55;;;2.00;99.90;;;;;;5074332;28;20036;-73
2021/01/26 04:14:05;;;;;;;17.42;9.13;;;2.10;99.90;;;;;;5082849;28;20036;-73
2021/01/26 04:16:54;;;;;;;20.38;10.20;;;2.00;99.90;;;;;;5082394;28;20040;-72
2021/01/26 04:19:25;;;;;;;22.95;11.10;;;1.90;99.90;;;;;;5074030;28;20031;-73
2021/01/26 04:21:51;;;;;;;19.08;10.05;;;1.80;99.90;;;;;;5073826;28;20024;-72
2021/01/26 04:24:19;;;;;;;24.67;10.68;;;1.80;99.90;;;;;;5073882;28;20394;-72
2021/01/26 04:26:48;;;;;;;18.95;9.75;;;1.80;99.90;;;;;;5091253;28;20055;-73
2021/01/26 04:29:15;;;;;;;20.83;10.40;;;1.90;99.90;;;;;;5073486;28;20032;-72
2021/01/26 04:31:41;;;;;;;19.17;9.10;;;2.00;99.90;;;;;;5073461;28;20044;-73
2021/01/26 04:34:07;;;;;;;18.42;10.27;;;2.00;99.90;;;;;;5073761;28;20020;-72
2021/01/26 04:36:34;;;;;;;16.98;8.68;;;2.00;99.90;;;;;;5073505;28;20048;-73
2021/01/26 04:39:01;;;;;;;16.23;9.35;;;2.00;99.90;;;;;;5073745;28;20029;-72
2021/01/26 04:41:33;;;;;;;21.73;10.45;;;2.00;99.90;;;;;;5073803;28;20028;-72
2021/01/26 04:44:07;;;;;;;18.52;9.82;;;2.00;99.90;;;;;;5084990;28;20024;-72
2021/01/26 04:46:56;;;;;;;19.48;9.55;;;2.00;99.90;;;;;;5078582;28;20025;-72
2021/01/26 04:49:28;;;;;;;18.17;9.02;;;1.90;99.90;;;;;;5073806;28;20031;-72
2021/01/26 04:52:06;;;;;;;22.15;9.93;;;1.90;99.90;;;;;;5081968;28;20048;-72
2021/01/26 04:55:00;;;;;;;14.95;8.52;;;1.90;99.90;;;;;;5079376;28;20037;-72
2021/01/26 04:57:44;;;;;;;19.88;8.00;;;1.90;99.90;;;;;;5073473;28;20138;-72
2021/01/26 05:00:31;;;;;;;17.90;8.18;;;2.00;99.90;;;;;;5092739;28;20028;-72
2021/01/26 05:03:14;;;;;;;20.75;10.13;;;2.10;99.90;;;;;;5077164;28;20047;-72
2021/01/26 05:05:45;;;;;;;19.77;9.85;;;2.10;99.90;;;;;;5078805;28;20496;-72
2021/01/26 05:08:19;;;;;;;15.43;7.93;;;2.00;99.90;;;;;;5073186;28;20021;-72
2021/01/26 05:10:48;;;;;;;18.30;8.55;;;2.10;99.90;;;;;;5072510;28;20040;-72
2021/01/26 05:13:26;;;;;;;17.30;8.15;;;2.10;99.90;;;;;;5073077;28;20024;-72
2021/01/26 05:16:13;;;;;;;20.35;9.20;;;2.00;99.90;;;;;;5072620;28;20040;-72
2021/01/26 05:18:50;;;;;;;14.98;7.70;;;2.00;99.90;;;;;;5079307;28;20043;-73
2021/01/26 05:21:35;;;;;;;17.02;8.63;;;2.00;99.90;;;;;;5081986;28;20033;-73
2021/01/26 05:24:21;;;;;;;14.10;8.05;;;1.90;99.90;;;;;;5073097;28;20028;-72
2021/01/26 05:26:47;;;;;;;21.88;9.07;;;1.90;99.90;;;;;;5072157;28;20040;-72
2021/01/26 05:29:14;;;;;;;14.68;8.48;;;2.00;99.90;;;;;;5086920;28;20066;-71
2021/01/26 05:31:48;;;;;;;14.55;7.75;;;2.10;99.90;;;;;;5079972;28;20037;-72
2021/01/26 05:34:17;;;;;;;23.45;10.85;;;2.10;99.90;;;;;;5078946;28;20029;-72
2021/01/26 05:36:45;;;;;;;16.90;8.05;;;2.10;99.90;;;;;;5072227;28;20037;-72
2021/01/26 05:39:27;;;;;;;13.10;7.55;;;2.10;99.90;;;;;;5072738;28;20021;-72
2021/01/26 05:41:53;;;;;;;15.63;7.10;;;2.10;99.90;;;;;;5083805;28;20059;-71
2021/01/26 05:44:21;;;;;;;15.32;8.25;;;2.10;99.90;;;;;;5072700;28;20036;-72
2021/01/26 05:46:48;;;;;;;17.50;9.65;;;2.10;99.90;;;;;;5072102;28;20055;-72
2021/01/26 05:49:32;;;;;;;15.73;8.02;;;2.10;99.90;;;;;;5072245;28;20064;-72
2021/01/26 05:52:00;;;;;;;16.70;7.35;;;2.20;99.90;;;;;;5071585;28;20039;-70
2021/01/26 05:54:28;;;;;;;19.33;7.50;;;2.20;99.90;;;;;;5072303;28;20032;-71
2021/01/26 05:56:56;;;;;;;13.00;7.78;;;2.20;99.90;;;;;;5072152;28;20025;-71
2021/01/26 05:59:35;;;;;;;17.10;7.18;;;2.30;99.90;;;;;;5072277;28;20040;-71
2021/01/26 06:02:16;;;;;;;16.13;6.70;;;2.30;99.90;;;;;;5073094;28;20477;-71
2021/01/26 06:04:43;;;;;;;;;;;2.30;99.90;;;;;;5079219;28;20035;-70
2021/01/26 06:07:35;;;;;;;12.38;6.38;;;2.30;99.90;;;;;;5073466;28;19915;-71
2021/01/26 06:10:17;;;;;;;11.02;5.43;;;2.50;99.90;;;;;;5088009;28;20043;-70
2021/01/26 06:12:56;;;;;;;11.30;5.88;;;2.50;99.90;;;;;;5088239;28;20496;-71
2021/01/26 06:15:31;;;;;;;13.60;5.80;;;2.40;99.90;;;;;;5086990;28;20032;-71
2021/01/26 06:18:19;;;;;;;12.32;6.20;;;2.40;99.90;;;;;;5071884;28;20052;-70
2021/01/26 06:21:07;;;;;;;9.75;5.25;;;2.40;99.90;;;;;;5071817;28;20381;-71
2021/01/26 06:23:35;;;;;;;11.52;5.07;;;2.50;99.90;;;;;;5071882;28;20040;-72
2021/01/26 06:26:09;;;;;;;11.80;6.15;;;2.50;99.90;;;;;;5071610;28;20041;-72
2021/01/26 06:28:36;;;;;;;11.20;5.63;;;2.50;99.90;;;;;;5071889;28;20028;-72
2021/01/26 06:31:20;;;;;;;11.95;5.40;;;2.50;99.90;;;;;;5071467;28;20053;-71
2021/01/26 06:34:06;;;;;;;13.85;6.28;;;2.60;99.90;;;;;;5081680;28;20461;-72
2021/01/26 06:36:57;;;;;;;9.32;5.78;;;2.60;99.90;;;;;;5077681;28;20040;-72
2021/01/26 06:39:41;;;;;;;9.20;5.47;;;2.60;99.90;;;;;;5071955;28;20044;-72
2021/01/26 06:42:32;;;;;;;12.30;7.07;;;2.60;99.90;;;;;;5085321;28;20500;-71
2021/01/26 06:45:13;;;;;;;13.00;5.70;;;2.50;99.90;;;;;;5071625;28;20055;-72
2021/01/26 06:47:51;;;;;;;10.55;5.32;;;2.50;99.90;;;;;;5071406;28;20036;-71
2021/01/26 06:50:34;;;;;;;11.57;5.25;;;2.50;99.90;;;;;;5071499;28;20043;-71
2021/01/26 06:53:11;;;;;;;10.20;5.60;;;2.50;99.90;;;;;;5071265;28;20032;-70
2021/01/26 06:55:52;;;;;;;12.10;5.93;;;2.40;99.90;;;;;;5084481;28;20024;-71
2021/01/26 06:58:44;;;;;;;11.10;5.25;;;2.50;99.90;;;;;;5071911;28;20025;-71
2021/01/26 07:01:34;;;;;;;9.05;5.25;;;2.50;99.90;;;;;;5089919;28;20036;-70
2021/01/26 07:04:06;;;;;;;10.02;5.95;;;2.40;99.90;;;;;;5070195;28;20032;-72
2021/01/26 07:06:45;;;;;;;10.48;5.63;;;2.40;99.90;;;;;;5087235;28;20032;-72
2021/01/26 07:09:30;;;;;;;14.20;5.28;;;2.50;99.90;;;;;;5074615;28;20032;-70
2021/01/26 07:12:43;;;;;;;10.15;4.38;;;2.60;99.90;;;;;;5078362;28;20146;-70
2021/01/26 07:15:27;;;;;;;16.33;7.57;;;2.70;99.90;;;;;;5078791;28;20040;-71
2021/01/26 07:18:11;;;;;;;13.32;6.90;;;2.60;99.90;;;;;;5076938;28;20036;-71
2021/01/26 07:21:05;;;;;;;20.58;9.65;;;2.70;99.90;;;;;;5074563;28;20029;-71
2021/01/26 07:23:49;;;;;;;10.93;5.13;;;2.80;99.90;;;;;;5082773;28;20046;-70
2021/01/26 07:26:39;;;;;;;12.88;4.07;;;2.70;99.90;;;;;;5075111;28;20025;-71
2021/01/26 07:29:29;;;;;;;8.38;5.05;;;2.70;99.90;;;;;;5074957;28;20033;-72
2021/01/26 07:32:03;;;;;;;6.30;4.17;;;2.70;99.90;;;;;;5086244;28;20047;-71
2021/01/26 07:34:36;;;;;;;7.90;4.15;;;2.70;99.90;;;;;;5075059;28;20037;-73
2021/01/26 07:37:19;;;;;;;8.68;4.40;;;2.70;99.90;;;;;;5074384;28;20489;-72
2021/01/26 07:39:49;;;;;;;8.98;3.78;;;2.70;99.90;;;;;;5074685;28;20485;-72
2021/01/26 07:42:25;;;;;;;9.75;4.15;;;2.70;99.90;;;;;;5094834;28;20141;-72
2021/01/26 07:45:11;;;;;;;8.90;3.42;;;2.70;99.90;;;;;;5074088;28;20100;-72
2021/01/26 07:47:43;;;;;;;9.45;3.50;;;2.70;99.90;;;;;;5081265;28;20032;-72
2021/01/26 07:50:39;;;;;;;8.52;4.15;;;2.80;99.90;;;;;;5090690;28;20036;-72
2021/01/26 07:53:26;;;;;;;8.23;4.07;;;2.90;99.90;;;;;;5074432;28;20385;-72
2021/01/26 07:56:14;;;;;;;7.20;4.20;;;3.00;99.90;;;;;;5072984;28;20032;-72
2021/01/26 07:58:44;;;;;;;6.57;4.03;;;2.90;99.90;;;;;;5074334;28;20032;-72
2021/01/26 08:01:13;;;;;;;10.77;4.25;;;2.90;99.90;;;;;;5074282;28;20047;-72
2021/01/26 08:03:40;;;;;;;11.82;3.78;;;2.90;99.90;;;;;;5074077;28;20036;-72
2021/01/26 08:06:35;;;;;;;8.60;2.70;;;2.90;99.90;;;;;;5074446;28;20028;-72
2021/01/26 08:09:09;;;;;;;9.35;4.65;;;2.90;99.90;;;;;;5074144;28;20044;-71
2021/01/26 08:11:48;;;;;;;6.07;3.50;;;2.90;99.90;;;;;;5074061;28;20056;-72
2021/01/26 08:14:14;;;;;;;11.00;3.88;;;2.90;99.90;;;;;;5094652;28;20039;-72
2021/01/26 08:16:51;;;;;;;6.38;2.85;;;2.90;99.90;;;;;;5074042;28;20036;-72
2021/01/26 08:19:20;;;;;;;5.05;3.28;;;2.90;99.90;;;;;;5074306;28;20028;-72
2021/01/26 08:21:48;;;;;;;5.95;3.50;;;2.90;99.90;;;;;;5073764;28;20493;-72
2021/01/26 08:24:23;;;;;;;9.82;4.03;;;2.90;99.90;;;;;;5074055;28;20032;-72
2021/01/26 08:26:50;;;;;;;6.03;3.15;;;3.00;99.90;;;;;;5073759;28;20454;-72
2021/01/26 08:29:44;;;;;;;6.40;2.47;;;3.00;99.90;;;;;;5073755;28;20029;-72
2021/01/26 08:32:23;;;;;;;6.00;3.55;;;3.00;99.90;;;;;;5073626;28;20389;-72
2021/01/26 08:35:06;;;;;;;7.38;3.63;;;3.10;99.90;;;;;;5084489;28;20033;-72
2021/01/26 08:37:46;;;;;;;13.07;3.90;;;3.10;99.90;;;;;;5073951;28;20469;-72
2021/01/26 08:40:18;;;;;;;9.07;2.97;;;3.10;99.90;;;;;;5086606;28;20028;-72
2021/01/26 08:42:59;;;;;;;11.90;3.08;;;3.20;99.90;;;;;;5087687;28;20469;-72
2021/01/26 08:45:26;;;;;;;5.80;2.70;;;3.10;99.90;;;;;;5073820;28;20040;-72
2021/01/26 08:47:57;;;;;;;5.65;2.67;;;3.20;99.90;;;;;;5084108;28;20041;-72
2021/01/26 08:50:40;;;;;;;7.85;2.78;;;3.20;99.90;;;;;;5083215;28;20454;-72
2021/01/26 08:53:35;;;;;;;9.65;3.08;;;3.30;99.90;;;;;;5073429;28;20513;-72
2021/01/26 08:56:20;;;;;;;8.00;3.15;;;3.30;99.90;;;;;;5081519;28;20053;-72
2021/01/26 08:58:56;;;;;;;7.40;2.33;;;3.20;99.90;;;;;;5077407;28;20051;-72
2021/01/26 09:01:22;;;;;;;5.85;2.75;;;3.30;99.90;;;;;;5073475;28;20118;-72
2021/01/26 09:03:50;;;;;;;10.15;3.20;;;3.30;99.90;;;;;;5072424;28;20040;-72
2021/01/26 09:06:38;;;;;;;4.45;2.50;;;3.30;99.90;;;;;;5082275;28;20028;-72
2021/01/26 09:09:10;;;;;;;6.00;3.05;;;3.30;99.90;;;;;;5072735;28;20036;-72
2021/01/26 09:11:52;;;;;;;6.18;3.78;;;3.30;99.90;;;;;;5073105;28;20047;-72
2021/01/26 09:14:40;;;;;;;5.20;2.83;;;3.20;99.90;;;;;;5080209;28;20375;-72
2021/01/26 09:17:11;;;;;;;6.75;3.00;;;3.20;99.90;;;;;;5072822;28;20047;-72
2021/01/26 09:19:50;;;;;;;11.02;3.42;;;3.20;99.90;;;;;;5072902;28;20024;-73
2021/01/26 09:22:21;;;;;;;6.68;2.63;;;3.30;99.90;;;;;;5088433;28;20028;-72
2021/01/26 09:24:53;;;;;;;6.03;2.72;;;3.30;99.90;;;;;;5080688;28;20027;-73
2021/01/26 09:27:25;;;;;;;6.47;2.50;;;3.30;99.90;;;;;;5084810;28;20052;-72
2021/01/26 09:30:05;;;;;;;9.05;2.53;;;3.40;99.90;;;;;;5070689;28;20044;-73
2021/01/26 09:32:33;;;;;;;7.93;2.58;;;3.40;99.90;;;;;;5080177;28;20102;-72
2021/01/26 09:35:25;;;;;;;9.00;2.67;;;3.60;99.90;;;;;;5082845;28;20058;-72
2021/01/26 09:38:05;;;;;;;5.18;3.08;;;3.60;99.90;;;;;;5084913;28;20395;-72
2021/01/26 09:40:33;;;;;;;9.40;3.03;;;3.70;99.90;;;;;;5076859;28;20044;-72
2021/01/26 09:43:10;;;;;;;5.80;2.13;;;3.60;99.90;;;;;;5089752;28;20039;-72
2021/01/26 09:45:38;;;;;;;5.05;2.45;;;3.60;99.90;;;;;;5073869;28;20051;-72
2021/01/26 09:48:04;;;;;;;7.75;2.70;;;3.70;99.90;;;;;;5071983;28;20032;-73
2021/01/26 09:50:31;;;;;;;4.72;2.53;;;3.70;99.90;;;;;;5072432;28;20029;-72
2021/01/26 09:53:00;;;;;;;5.97;2.42;;;3.70;99.90;;;;;;5071979;28;20028;-72
2021/01/26 09:55:27;;;;;;;6.10;2.15;;;3.70;99.90;;;;;;5072294;28;20032;-72
2021/01/26 09:57:54;;;;;;;6.18;2.30;;;3.80;99.90;;;;;;5079325;28;20040;-73
2021/01/26 10:00:23;;;;;;;5.88;2.30;;;3.80;99.90;;;;;;5088446;28;20488;-73
2021/01/26 10:02:59;;;;;;;3.85;2.08;;;3.80;99.90;;;;;;5071852;28;20028;-72
2021/01/26 10:05:29;;;;;;;6.22;2.15;;;3.80;99.90;;;;;;5072227;28;20040;-72
2021/01/26 10:08:08;;;;;;;5.10;2.08;;;3.90;99.90;;;;;;5075113;28;20040;-72
2021/01/26 10:10:35;;;;;;;8.98;2.47;;;3.80;99.90;;;;;;5077886;28;20036;-73
2021/01/26 10:13:24;;;;;;;6.13;2.30;;;3.90;99.90;;;;;;5081435;28;20028;-72
2021/01/26 10:15:51;;;;;;;4.75;2.30;;;4.00;99.90;;;;;;5072655;28;20032;-72
2021/01/26 10:18:20;;;;;;;3.60;1.83;;;4.00;99.90;;;;;;5083958;28;20457;-73
2021/01/26 10:20:47;;;;;;;4.93;2.38;;;4.00;99.90;;;;;;5079590;28;20040;-74
2021/01/26 10:23:27;;;;;;;7.20;2.10;;;3.90;99.90;;;;;;5075833;28;20059;-73
2021/01/26 10:26:14;;;;;;;8.18;2.35;;;3.90;99.90;;;;;;5071230;28;20055;-74
2021/01/26 10:29:00;;;;;;;6.03;2.35;;;3.90;99.90;;;;;;5070185;28;20045;-73
2021/01/26 10:31:29;;;;;;;6.85;3.08;;;4.00;99.90;;;;;;5070285;28;20053;-73
2021/01/26 10:33:55;;;;;;;7.88;2.65;;;4.00;99.90;;;;;;5071247;28;20052;-73
2021/01/26 10:36:32;;;;;;;11.65;2.70;;;3.90;99.90;;;;;;5072129;28;20032;-73
2021/01/26 10:39:03;;;;;;;7.30;3.08;;;3.90;99.90;;;;;;5084715;28;20448;-73
2021/01/26 10:41:32;;;;;;;8.03;3.30;;;3.90;99.90;;;;;;5077406;28;20425;-73
2021/01/26 10:44:04;;;;;;;10.73;3.65;;;3.90;99.90;;;;;;5071485;28;20036;-73
2021/01/26 10:46:44;;;;;;;6.03;2.25;;;4.00;99.90;;;;;;5071851;28;20029;-74
2021/01/26 10:49:30;;;;;;;6.50;2.13;;;4.10;99.90;;;;;;5073840;28;20039;-73
2021/01/26 10:52:05;;;;;;;5.97;2.30;;;4.10;99.90;;;;;;5085638;28;20397;-74
2021/01/26 10:54:33;;;;;;;3.85;1.73;;;4.00;99.90;;;;;;5075167;28;20048;-73
2021/01/26 10:56:59;;;;;;;5.47;1.95;;;3.90;99.90;;;;;;5090662;28;20031;-73
2021/01/26 10:59:26;;;;;;;6.35;1.75;;;4.00;99.90;;;;;;5075677;28;20107;-73
2021/01/26 11:01:52;;;;;;;6.82;1.90;;;4.00;99.90;;;;;;5075087;28;20051;-73
2021/01/26 11:04:19;;;;;;;3.72;1.90;;;4.00;99.90;;;;;;5075359;28;20033;-73
2021/01/26 11:06:46;;;;;;;6.72;2.03;;;3.90;99.90;;;;;;5075197;28;20434;-74
2021/01/26 11:09:14;;;;;;;7.63;2.17;;;3.90;99.90;;;;;;5075575;28;20028;-73
2021/01/26 11:11:42;;;;;;;6.03;2.10;;;4.00;99.90;;;;;;5082884;28;20039;-73
2021/01/26 11:14:09;;;;;;;4.90;2.00;;;4.00;99.90;;;;;;5089529;28;20043;-73
2021/01/26 11:16:35;;;;;;;11.18;2.08;;;4.00;99.90;;;;;;5078086;28;20032;-74
2021/01/26 11:19:04;;;;;;;7.68;2.55;;;4.00;99.90;;;;;;5093289;28;20044;-73
2021/01/26 11:21:31;;;;;;;6.03;1.88;;;4.00;99.90;;;;;;5075233;28;20028;-74
2021/01/26 11:23:58;;;;;;;7.32;2.17;;;4.10;99.90;;;;;;5074778;28;20630;-73
2021/01/26 11:26:25;;;;;;;8.18;2.47;;;4.00;99.90;;;;;;5075397;28;20032;-71
2021/01/26 11:28:52;;;;;;;9.57;3.03;;;4.20;99.90;;;;;;5074242;28;20036;-72
2021/01/26 11:31:18;;;;;;;9.82;3.45;;;4.20;99.90;;;;;;5086976;28;20052;-72
2021/01/26 11:33:46;;;;;;;7.40;2.17;;;4.30;99.90;;;;;;5074317;28;20508;-72
2021/01/26 11:36:12;;;;;;;6.50;1.85;;;4.30;99.90;;;;;;5093070;28;20040;-72
2021/01/26 11:38:39;;;;;;;6.28;2.05;;;4.30;99.90;;;;;;5084709;28;20032;-72
2021/01/26 11:41:06;;;;;;;5.30;2.03;;;4.40;99.90;;;;;;5085760;28;20485;-72
2021/01/26 11:43:33;;;;;;;5.72;2.20;;;4.40;99.90;;;;;;5082710;28;20466;-72
2021/01/26 11:46:00;;;;;;;6.70;2.72;;;4.40;99.90;;;;;;5092558;28;20039;-72
2021/01/26 11:48:26;;;;;;;6.07;2.67;;;4.40;99.90;;;;;;5074808;28;20036;-72
2021/01/26 11:50:53;;;;;;;4.10;1.70;;;4.40;99.90;;;;;;5074393;28;20048;-73
2021/01/26 11:53:21;;;;;;;10.23;2.33;;;4.50;99.90;;;;;;5090577;28;20044;-73
2021/01/26 11:55:48;;;;;;;4.00;1.58;;;4.40;99.90;;;;;;5074470;28;20024;-73
2021/01/26 11:58:15;;;;;;;3.50;1.42;;;4.30;99.90;;;;;;5074812;28;20483;-72
2021/01/26 12:00:42;;;;;;;4.72;1.85;;;4.40;99.90;;;;;;5074367;28;20028;-73
2021/01/26 12:03:09;;;;;;;6.72;2.30;;;4.40;99.90;;;;;;5073799;28;20264;-72
2021/01/26 12:05:38;;;;;;;7.65;3.13;;;4.40;99.90;;;;;;5075936;28;20043;-72
2021/01/26 12:08:05;;;;;;;6.05;2.10;;;4.60;99.90;;;;;;5086570;28;20036;-72
2021/01/26 12:10:33;;;;;;;5.97;1.92;;;4.70;99.90;;;;;;5074409;28;20048;-72
2021/01/26 12:13:00;;;;;;;4.30;2.05;;;4.70;99.90;;;;;;5088235;28;20040;-72
2021/01/26 12:15:31;;;;;;;6.13;1.83;;;4.60;99.90;;;;;;5074186;28;20036;-72
2021/01/26 12:17:58;;;;;;;4.35;2.08;;;4.60;99.90;;;;;;5074061;28;20486;-73
2021/01/26 12:20:27;;;;;;;8.70;2.35;;;4.60;99.90;;;;;;5074367;28;20039;-73
2021/01/26 12:22:54;;;;;;;5.75;2.53;;;4.60;99.70;;;;;;5073671;28;20488;-73
2021/01/26 12:25:22;;;;;;;5.43;1.63;;;4.50;99.90;;;;;;5086332;28;20485;-74
2021/01/26 12:27:48;;;;;;;7.90;2.75;;;4.60;99.90;;;;;;5087889;28;20035;-73
2021/01/26 12:30:15;;;;;;;5.07;2.60;;;4.60;99.90;;;;;;5082837;28;20059;-73
2021/01/26 12:32:42;;;;;;;7.28;3.10;;;4.50;99.30;;;;;;5074046;28;20048;-73
2021/01/26 12:35:16;;;;;;;8.55;4.63;;;4.50;99.90;;;;;;5092179;28;20040;-73
2021/01/26 12:37:42;;;;;;;9.27;5.32;;;4.50;99.90;;;;;;5073049;28;20355;-73
2021/01/26 12:40:10;;;;;;;11.25;5.68;;;4.50;99.20;;;;;;5073053;28;20043;-73
2021/01/26 12:42:36;;;;;;;10.60;4.72;;;4.60;98.60;;;;;;5073941;28;20036;-73
2021/01/26 12:45:04;;;;;;;5.57;3.30;;;4.50;98.90;;;;;;5071559;28;20482;-73
2021/01/26 12:47:30;;;;;;;5.60;2.70;;;4.60;99.40;;;;;;5073396;28;20035;-73
2021/01/26 12:49:56;;;;;;;7.50;3.80;;;4.80;99.80;;;;;;5073474;28;20037;-74
2021/01/26 12:52:24;;;;;;;5.97;2.38;;;4.80;97.90;;;;;;5088315;28;20067;-73
2021/01/26 12:54:51;;;;;;;6.03;2.08;;;4.60;97.40;;;;;;5072902;28;20489;-73
2021/01/26 12:57:17;;;;;;;7.28;3.67;;;4.50;96.70;;;;;;5073399;28;20043;-73
2021/01/26 12:59:44;;;;;;;6.63;3.78;;;4.60;97.70;;;;;;5073525;28;20064;-73
2021/01/26 13:02:11;;;;;;;4.75;2.88;;;4.60;98.30;;;;;;5073457;28;20028;-73
2021/01/26 13:04:37;;;;;;;3.47;2.58;;;4.60;97.40;;;;;;5073768;28;20462;-72
2021/01/26 13:07:03;;;;;;;8.52;2.90;;;4.40;97.70;;;;;;5073150;28;20040;-73
2021/01/26 13:09:29;;;;;;;7.15;3.70;;;4.40;98.10;;;;;;5073279;28;20051;-73
2021/01/26 13:11:56;;;;;;;7.50;2.85;;;4.40;97.00;;;;;;5072803;28;20032;-73
2021/01/26 13:14:22;;;;;;;7.65;2.63;;;4.40;97.50;;;;;;5072911;28;20051;-72
2021/01/26 13:16:48;;;;;;;5.38;2.72;;;4.30;97.40;;;;;;5072673;28;20039;-73
2021/01/26 13:19:15;;;;;;;7.20;2.72;;;4.30;97.30;;;;;;5075429;28;20028;-72
2021/01/26 13:21:41;;;;;;;4.97;2.65;;;4.30;97.40;;;;;;5090334;28;20028;-72
2021/01/26 13:24:07;;;;;;;4.95;2.75;;;4.30;97.70;;;;;;5081414;28;20028;-72